Time;durP1;ratioP1;P1;durP2;ratioP2;P2;SDS_P1;SDS_P2;PMS_P1;PMS_P2;Temp;Humidity;BMP_temperature;BMP_pressure;BME280_temperature;BME280_humidity;BME280_pressure;Samples;Min_cycle;Max_cycle;Signal;HPM_P1;HPM_P2
2024/03/23 00:01:31;;;;;;;38.60;13.63;;;;;;;;;;5034487;28;20075;-80
2024/03/23 00:03:57;;;;;;;51.30;13.73;;;;;;;;;;5035021;28;20036;-80
2024/03/23 00:06:24;;;;;;;33.15;11.20;;;;;;;;;;5052203;28;20021;-81
2024/03/23 00:08:50;;;;;;;40.53;13.05;;;;;;;;;;5050981;28;20025;-81
2024/03/23 00:11:17;;;;;;;44.50;12.98;;;;;;;;;;5050936;28;20032;-79
2024/03/23 00:13:43;;;;;;;45.97;13.15;;;;;;;;;;5051038;28;20106;-80
2024/03/23 00:16:10;;;;;;;46.10;16.45;;;;;;;;;;5051207;28;20365;-80
2024/03/23 00:18:36;;;;;;;38.42;13.02;;;;;;;;;;5052850;28;20037;-80
2024/03/23 00:21:03;;;;;;;41.88;13.20;;;;;;;;;;5050938;28;20057;-79
2024/03/23 00:23:29;;;;;;;36.10;13.93;;;;;;;;;;5052273;28;20032;-80
2024/03/23 00:25:56;;;;;;;34.42;13.07;;;;;;;;;;5051756;28;20472;-81
2024/03/23 00:28:22;;;;;;;44.83;13.52;;;;;;;;;;5051633;28;20489;-82
2024/03/23 00:30:49;;;;;;;44.47;13.45;;;;;;;;;;5034525;28;20469;-82
2024/03/23 00:33:15;;;;;;;40.88;12.57;;;;;;;;;;5052660;28;20388;-81
2024/03/23 00:35:42;;;;;;;44.60;13.43;;;;;;;;;;5051156;28;20025;-82
2024/03/23 00:38:09;;;;;;;39.75;13.57;;;;;;;;;;5051273;28;20040;-80
2024/03/23 00:40:35;;;;;;;36.58;12.65;;;;;;;;;;5050845;28;20044;-80
2024/03/23 00:43:02;;;;;;;40.63;14.25;;;;;;;;;;5051155;28;20021;-80
2024/03/23 00:45:28;;;;;;;43.35;13.55;;;;;;;;;;5033994;28;20037;-80
2024/03/23 00:47:55;;;;;;;41.40;13.80;;;;;;;;;;5050987;28;20096;-80
2024/03/23 00:50:21;;;;;;;48.78;14.20;;;;;;;;;;5034212;28;20025;-81
2024/03/23 00:52:48;;;;;;;39.03;13.98;;;;;;;;;;5034629;28;20052;-80
2024/03/23 00:55:14;;;;;;;46.65;14.98;;;;;;;;;;5052859;28;20013;-81
2024/03/23 00:57:40;;;;;;;43.58;13.82;;;;;;;;;;5051276;28;20108;-81
2024/03/23 01:00:06;;;;;;;35.60;13.75;;;;;;;;;;5051393;28;20477;-81
2024/03/23 01:02:35;;;;;;;39.53;14.18;;;;;;;;;;5051486;28;20021;-80
2024/03/23 01:05:01;;;;;;;54.58;15.57;;;;;;;;;;5051015;28;20067;-82
2024/03/23 01:07:27;;;;;;;36.80;13.40;;;;;;;;;;5050728;28;20465;-80
2024/03/23 01:09:53;;;;;;;39.05;13.82;;;;;;;;;;5050919;28;20025;-82
2024/03/23 01:12:19;;;;;;;40.55;15.23;;;;;;;;;;5052258;28;20014;-82
2024/03/23 01:14:45;;;;;;;42.00;15.85;;;;;;;;;;5050826;28;20025;-81
2024/03/23 01:17:11;;;;;;;45.15;16.45;;;;;;;;;;5050682;28;20029;-82
2024/03/23 01:19:39;;;;;;;43.95;14.73;;;;;;;;;;5050155;28;20048;-81
2024/03/23 01:22:05;;;;;;;44.67;15.73;;;;;;;;;;5050578;28;20017;-80
2024/03/23 01:24:31;;;;;;;46.72;15.35;;;;;;;;;;5050295;28;20029;-80
2024/03/23 01:26:57;;;;;;;44.33;15.95;;;;;;;;;;5050452;28;20499;-80
2024/03/23 01:29:23;;;;;;;42.72;16.05;;;;;;;;;;5051479;28;20028;-80
2024/03/23 01:31:49;;;;;;;42.47;16.63;;;;;;;;;;5050734;28;20385;-82
2024/03/23 01:34:15;;;;;;;40.72;14.27;;;;;;;;;;5050994;28;20029;-81
2024/03/23 01:36:41;;;;;;;47.55;17.13;;;;;;;;;;5050617;28;20032;-80
2024/03/23 01:39:09;;;;;;;45.60;17.00;;;;;;;;;;5050680;28;20021;-81
2024/03/23 01:41:36;;;;;;;45.20;16.52;;;;;;;;;;5051994;28;20021;-79
2024/03/23 01:44:05;;;;;;;45.55;15.98;;;;;;;;;;5055799;28;20025;-80
2024/03/23 01:46:31;;;;;;;51.38;15.88;;;;;;;;;;5054153;28;20024;-80
2024/03/23 01:48:57;;;;;;;45.42;17.50;;;;;;;;;;5056096;28;20103;-82
2024/03/23 01:51:24;;;;;;;51.13;19.40;;;;;;;;;;5054344;28;20029;-82
2024/03/23 01:53:50;;;;;;;61.25;22.10;;;;;;;;;;5055682;28;20017;-83
2024/03/23 01:56:16;;;;;;;63.00;24.20;;;;;;;;;;5054626;28;20385;-83
2024/03/23 01:58:42;;;;;;;51.00;21.25;;;;;;;;;;5053698;28;20564;-81
2024/03/23 02:01:08;;;;;;;58.80;22.00;;;;;;;;;;5054368;28;20116;-80
2024/03/23 02:03:34;;;;;;;73.93;25.35;;;;;;;;;;5054209;28;20029;-81
2024/03/23 02:06:01;;;;;;;61.72;23.05;;;;;;;;;;5054446;28;20056;-81
2024/03/23 02:08:27;;;;;;;62.10;25.58;;;;;;;;;;5054141;28;20490;-82
2024/03/23 02:10:53;;;;;;;73.18;30.65;;;;;;;;;;5054293;28;20032;-81
2024/03/23 02:13:19;;;;;;;52.15;22.75;;;;;;;;;;5055803;28;20067;-80
2024/03/23 02:15:45;;;;;;;46.20;19.15;;;;;;;;;;5054082;28;20415;-83
2024/03/23 02:18:11;;;;;;;48.92;18.83;;;;;;;;;;5053808;28;20123;-83
2024/03/23 02:20:38;;;;;;;45.30;20.27;;;;;;;;;;5053343;28;20049;-83
2024/03/23 02:23:07;;;;;;;58.42;20.63;;;;;;;;;;5055309;28;20029;-83
2024/03/23 02:25:33;;;;;;;48.13;23.38;;;;;;;;;;5053933;28;20496;-83
2024/03/23 02:28:00;;;;;;;52.95;19.75;;;;;;;;;;5054038;28;20049;-83
2024/03/23 02:30:26;;;;;;;59.45;20.10;;;;;;;;;;5053811;28;20025;-82
2024/03/23 02:32:53;;;;;;;43.05;18.67;;;;;;;;;;5053927;28;20121;-80
2024/03/23 02:35:19;;;;;;;47.92;20.52;;;;;;;;;;5053851;28;20056;-81
2024/03/23 02:37:48;;;;;;;54.30;20.88;;;;;;;;;;5053488;28;20037;-82
2024/03/23 02:40:14;;;;;;;47.17;18.67;;;;;;;;;;5053709;28;20171;-81
2024/03/23 02:42:40;;;;;;;44.58;19.55;;;;;;;;;;5054324;28;20024;-81
2024/03/23 02:45:06;;;;;;;42.28;18.83;;;;;;;;;;5053437;28;20025;-81
2024/03/23 02:47:33;;;;;;;45.47;18.77;;;;;;;;;;5054714;28;20052;-81
2024/03/23 02:49:59;;;;;;;39.42;17.90;;;;;;;;;;5054819;28;20021;-81
2024/03/23 02:52:25;;;;;;;50.00;18.80;;;;;;;;;;5052923;28;20482;-83
2024/03/23 02:54:51;;;;;;;50.30;18.77;;;;;;;;;;5052906;28;20021;-83
2024/03/23 02:57:17;;;;;;;59.90;19.95;;;;;;;;;;5053221;28;20124;-82
2024/03/23 02:59:43;;;;;;;51.20;20.50;;;;;;;;;;5053059;28;20396;-83
2024/03/23 03:02:09;;;;;;;41.60;18.27;;;;;;;;;;5053509;28;20456;-83
2024/03/23 03:04:35;;;;;;;46.70;19.90;;;;;;;;;;5053230;28;20029;-83
2024/03/23 03:07:01;;;;;;;38.45;18.10;;;;;;;;;;5053100;28;20082;-79
2024/03/23 03:09:27;;;;;;;45.97;17.90;;;;;;;;;;5052978;28;20028;-79
2024/03/23 03:11:53;;;;;;;45.35;18.80;;;;;;;;;;5053071;28;20024;-80
2024/03/23 03:14:20;;;;;;;43.40;19.48;;;;;;;;;;5052902;28;20033;-79
2024/03/23 03:16:46;;;;;;;45.92;18.83;;;;;;;;;;5053930;28;20024;-78
2024/03/23 03:19:12;;;;;;;62.05;22.58;;;;;;;;;;5052554;28;20071;-81
2024/03/23 03:21:38;;;;;;;56.65;21.17;;;;;;;;;;5054161;28;20013;-79
2024/03/23 03:24:06;;;;;;;46.83;20.20;;;;;;;;;;5052542;28;20029;-79
2024/03/23 03:26:33;;;;;;;57.22;21.83;;;;;;;;;;5052187;28;20033;-81
2024/03/23 03:28:59;;;;;;;47.88;21.92;;;;;;;;;;5052533;28;20121;-81
2024/03/23 03:31:25;;;;;;;52.28;21.60;;;;;;;;;;5052325;28;20017;-82
2024/03/23 03:33:51;;;;;;;45.63;21.60;;;;;;;;;;5052287;28;20543;-81
2024/03/23 03:36:17;;;;;;;39.67;18.52;;;;;;;;;;5052248;28;20025;-81
2024/03/23 03:38:43;;;;;;;49.75;21.65;;;;;;;;;;5052073;28;20039;-82
2024/03/23 03:41:09;;;;;;;48.78;19.58;;;;;;;;;;5052243;28;20025;-81
2024/03/23 03:43:35;;;;;;;40.17;18.60;;;;;;;;;;5051904;28;20078;-81
2024/03/23 03:46:02;;;;;;;48.88;18.92;;;;;;;;;;5051897;28;20195;-81
2024/03/23 03:48:29;;;;;;;46.95;19.58;;;;;;;;;;5051564;28;20024;-81
2024/03/23 03:50:55;;;;;;;40.03;17.23;;;;;;;;;;5052072;28;20021;-80
2024/03/23 03:53:21;;;;;;;36.28;16.45;;;;;;;;;;5051926;28;20460;-82
2024/03/23 03:55:47;;;;;;;45.08;18.77;;;;;;;;;;5051911;28;20028;-81
2024/03/23 03:58:13;;;;;;;43.67;19.50;;;;;;;;;;5052088;28;20033;-81
2024/03/23 04:00:39;;;;;;;47.33;17.63;;;;;;;;;;5052861;28;20024;-81
2024/03/23 04:03:05;;;;;;;44.28;17.90;;;;;;;;;;5053439;28;20021;-82
2024/03/23 04:05:31;;;;;;;38.28;18.60;;;;;;;;;;5053027;28;20029;-82
2024/03/23 04:07:57;;;;;;;41.45;17.77;;;;;;;;;;5053279;28;20095;-82
2024/03/23 04:10:23;;;;;;;49.88;19.02;;;;;;;;;;5051944;28;20021;-82
2024/03/23 04:12:49;;;;;;;47.60;17.33;;;;;;;;;;5051586;28;20075;-82
2024/03/23 04:15:15;;;;;;;50.28;17.25;;;;;;;;;;5052109;28;20083;-82
2024/03/23 04:17:42;;;;;;;43.17;16.50;;;;;;;;;;5051072;28;20103;-83
2024/03/23 04:20:10;;;;;;;41.85;16.48;;;;;;;;;;5052383;28;20045;-82
2024/03/23 04:22:37;;;;;;;39.63;17.27;;;;;;;;;;5051091;28;20497;-84
2024/03/23 04:25:07;;;;;;;33.33;15.18;;;;;;;;;;5051387;28;20124;-82
2024/03/23 04:27:33;;;;;;;36.10;14.63;;;;;;;;;;5051382;28;20473;-81
2024/03/23 04:30:04;;;;;;;42.95;18.25;;;;;;;;;;5050991;28;20033;-81
2024/03/23 04:32:30;;;;;;;33.35;15.32;;;;;;;;;;5050911;28;20024;-81
2024/03/23 04:34:56;;;;;;;35.58;15.43;;;;;;;;;;5051443;28;20017;-82
2024/03/23 04:37:22;;;;;;;39.47;13.45;;;;;;;;;;5051004;28;20032;-81
2024/03/23 04:39:48;;;;;;;37.58;13.95;;;;;;;;;;5052188;28;20024;-82
2024/03/23 04:42:16;;;;;;;35.25;14.38;;;;;;;;;;5050842;28;20025;-79
2024/03/23 04:44:42;;;;;;;35.17;16.42;;;;;;;;;;5050422;28;20048;-79
2024/03/23 04:47:08;;;;;;;35.10;13.68;;;;;;;;;;5050662;28;20132;-78
2024/03/23 04:49:36;;;;;;;34.17;13.68;;;;;;;;;;5050481;28;20518;-81
2024/03/23 04:52:02;;;;;;;33.10;14.25;;;;;;;;;;5052432;28;20022;-81
2024/03/23 04:54:28;;;;;;;33.50;13.05;;;;;;;;;;5050994;28;20020;-81
2024/03/23 04:56:54;;;;;;;32.45;12.73;;;;;;;;;;5050914;28;20017;-80
2024/03/23 04:59:21;;;;;;;34.40;11.23;;;;;;;;;;5050810;28;20087;-80
2024/03/23 05:01:47;;;;;;;35.58;13.20;;;;;;;;;;5051816;28;20497;-79
2024/03/23 05:04:13;;;;;;;33.35;10.90;;;;;;;;;;5050645;28;20031;-79
2024/03/23 05:06:39;;;;;;;38.80;12.23;;;;;;;;;;5050567;28;20083;-80
2024/03/23 05:09:11;;;;;;;28.45;10.70;;;;;;;;;;5052275;28;20021;-80
2024/03/23 05:11:38;;;;;;;27.40;11.00;;;;;;;;;;5050904;28;20032;-80
2024/03/23 05:14:04;;;;;;;30.00;11.50;;;;;;;;;;5052185;28;20029;-81
2024/03/23 05:16:30;;;;;;;35.28;12.00;;;;;;;;;;5051983;28;20045;-80
2024/03/23 05:18:56;;;;;;;29.75;10.95;;;;;;;;;;5054405;28;20086;-81
2024/03/23 05:21:22;;;;;;;32.92;10.57;;;;;;;;;;5056032;28;20416;-82
2024/03/23 05:23:48;;;;;;;31.63;9.52;;;;;;;;;;5054539;28;20031;-83
2024/03/23 05:26:14;;;;;;;20.65;9.27;;;;;;;;;;5054709;28;20025;-81
2024/03/23 05:28:40;;;;;;;27.35;8.52;;;;;;;;;;5054295;28;20461;-81
2024/03/23 05:31:06;;;;;;;32.30;10.23;;;;;;;;;;5055900;28;20444;-80
2024/03/23 05:33:32;;;;;;;29.58;10.45;;;;;;;;;;5054150;28;20028;-80
2024/03/23 05:35:59;;;;;;;25.50;8.43;;;;;;;;;;5054126;28;20021;-80
2024/03/23 05:38:26;;;;;;;27.70;9.27;;;;;;;;;;5055104;28;20032;-80
2024/03/23 05:40:58;;;;;;;25.95;8.40;;;;;;;;;;5053749;28;20167;-80
2024/03/23 05:43:25;;;;;;;29.17;9.02;;;;;;;;;;5054125;28;20025;-81
2024/03/23 05:45:57;;;;;;;29.95;8.05;;;;;;;;;;5053701;28;20405;-81
2024/03/23 05:48:24;;;;;;;23.98;7.72;;;;;;;;;;5054405;28;20107;-80
2024/03/23 05:50:50;;;;;;;26.38;7.55;;;;;;;;;;5054112;28;20040;-81
2024/03/23 05:53:16;;;;;;;31.77;7.85;;;;;;;;;;5055721;28;20021;-80
2024/03/23 05:55:43;;;;;;;26.58;7.55;;;;;;;;;;5054065;28;20029;-80
2024/03/23 05:58:09;;;;;;;20.15;6.88;;;;;;;;;;5055126;28;20029;-81
2024/03/23 06:00:35;;;;;;;26.52;8.57;;;;;;;;;;5055287;28;20064;-80
2024/03/23 06:03:01;;;;;;;24.73;6.78;;;;;;;;;;5055536;28;20067;-80
2024/03/23 06:05:27;;;;;;;29.50;9.45;;;;;;;;;;5053892;28;20032;-80
2024/03/23 06:07:53;;;;;;;27.65;6.95;;;;;;;;;;5053677;28;20029;-80
2024/03/23 06:10:22;;;;;;;21.52;6.28;;;;;;;;;;5053804;28;20465;-81
2024/03/23 06:12:50;;;;;;;25.10;8.75;;;;;;;;;;5053476;28;20025;-80
2024/03/23 06:15:16;;;;;;;24.45;6.55;;;;;;;;;;5054011;28;20389;-80
2024/03/23 06:17:42;;;;;;;19.83;6.35;;;;;;;;;;5055108;28;20064;-81
2024/03/23 06:20:10;;;;;;;19.02;5.22;;;;;;;;;;5053261;28;20087;-81
2024/03/23 06:22:36;;;;;;;27.10;6.70;;;;;;;;;;5054614;28;20465;-81
2024/03/23 06:25:02;;;;;;;21.25;5.05;;;;;;;;;;5054236;28;20431;-80
2024/03/23 06:27:28;;;;;;;18.85;5.53;;;;;;;;;;5052457;28;20051;-79
2024/03/23 06:29:55;;;;;;;19.45;5.20;;;;;;;;;;5052663;28;20029;-79
2024/03/23 06:32:21;;;;;;;20.70;5.65;;;;;;;;;;5054957;28;20036;-81
2024/03/23 06:34:47;;;;;;;13.20;4.70;;;;;;;;;;5054529;28;20068;-80
2024/03/23 06:37:13;;;;;;;17.50;5.13;;;;;;;;;;5053828;28;20029;-82
2024/03/23 06:39:39;;;;;;;23.15;5.40;;;;;;;;;;5053965;28;20052;-82
2024/03/23 06:42:05;;;;;;;22.75;4.53;;;;;;;;;;5053520;28;20025;-83
2024/03/23 06:44:31;;;;;;;15.80;4.47;;;;;;;;;;5053373;28;20025;-83
2024/03/23 06:46:58;;;;;;;16.40;4.40;;;;;;;;;;5053014;28;20025;-81
2024/03/23 06:49:24;;;;;;;22.20;4.65;;;;;;;;;;5053133;28;20109;-80
2024/03/23 06:51:50;;;;;;;19.80;4.80;;;;;;;;;;5052857;28;20029;-80
2024/03/23 06:54:17;;;;;;;12.23;3.38;;;;;;;;;;5052476;28;20032;-81
2024/03/23 06:56:44;;;;;;;21.38;4.63;;;;;;;;;;5052314;28;20403;-80
2024/03/23 06:59:10;;;;;;;15.02;4.97;;;;;;;;;;5053601;28;20036;-80
2024/03/23 07:01:36;;;;;;;16.27;4.72;;;;;;;;;;5052303;28;20033;-79
2024/03/23 07:04:03;;;;;;;16.50;3.35;;;;;;;;;;5052517;28;20047;-80
2024/03/23 07:06:30;;;;;;;15.38;3.58;;;;;;;;;;5052552;28;20112;-79
2024/03/23 07:08:56;;;;;;;17.48;4.05;;;;;;;;;;5052104;28;20123;-78
2024/03/23 07:11:22;;;;;;;14.23;3.72;;;;;;;;;;5052302;28;20492;-79
2024/03/23 07:13:54;;;;;;;12.35;3.08;;;;;;;;;;5053603;28;20108;-78
2024/03/23 07:16:20;;;;;;;18.38;3.72;;;;;;;;;;5052183;28;20372;-78
2024/03/23 07:18:46;;;;;;;23.45;4.72;;;;;;;;;;5051865;28;20219;-78
2024/03/23 07:21:12;;;;;;;13.27;3.85;;;;;;;;;;5051884;28;20103;-78
2024/03/23 07:23:41;;;;;;;19.63;3.80;;;;;;;;;;5051835;28;20104;-78
2024/03/23 07:26:07;;;;;;;12.53;2.67;;;;;;;;;;5052671;28;20514;-77
2024/03/23 07:28:35;;;;;;;18.75;3.90;;;;;;;;;;5053811;28;20505;-78
2024/03/23 07:31:11;;;;;;;18.00;3.65;;;;;;;;;;5051821;28;20493;-80
2024/03/23 07:33:38;;;;;;;13.98;3.60;;;;;;;;;;5053601;28;20036;-78
2024/03/23 07:36:05;;;;;;;12.80;3.60;;;;;;;;;;5052411;28;20107;-78
2024/03/23 07:38:31;;;;;;;14.23;4.28;;;;;;;;;;5051788;28;20033;-79
2024/03/23 07:41:07;;;;;;;15.48;3.50;;;;;;;;;;5052163;28;20056;-80
2024/03/23 07:43:33;;;;;;;11.18;4.13;;;;;;;;;;5051652;28;20032;-79
2024/03/23 07:46:00;;;;;;;18.02;4.63;;;;;;;;;;5051455;28;20039;-81
2024/03/23 07:48:27;;;;;;;19.85;5.13;;;;;;;;;;5051641;28;20036;-79
2024/03/23 07:50:59;;;;;;;13.52;3.78;;;;;;;;;;5051550;28;20035;-78
2024/03/23 07:53:26;;;;;;;15.90;3.83;;;;;;;;;;5051641;28;20025;-78
2024/03/23 07:55:55;;;;;;;16.45;4.65;;;;;;;;;;5051434;28;20025;-78
2024/03/23 07:58:21;;;;;;;10.75;4.00;;;;;;;;;;5051425;28;20109;-77
2024/03/23 08:00:47;;;;;;;17.40;4.45;;;;;;;;;;5051177;28;20032;-78
2024/03/23 08:03:13;;;;;;;13.55;3.70;;;;;;;;;;5051459;28;20322;-78
2024/03/23 08:05:39;;;;;;;13.80;4.28;;;;;;;;;;5052939;28;20052;-78
2024/03/23 08:08:06;;;;;;;18.35;4.15;;;;;;;;;;5051287;28;20471;-78
2024/03/23 08:10:32;;;;;;;14.40;3.58;;;;;;;;;;5051231;28;20025;-78
2024/03/23 08:12:58;;;;;;;15.48;3.58;;;;;;;;;;5052251;28;20017;-77
2024/03/23 08:15:24;;;;;;;18.95;4.63;;;;;;;;;;5051027;28;20029;-76
2024/03/23 08:17:51;;;;;;;19.50;3.90;;;;;;;;;;5050783;28;20073;-76
2024/03/23 08:20:17;;;;;;;10.43;2.67;;;;;;;;;;5050683;28;20492;-77
2024/03/23 08:22:43;;;;;;;10.25;3.13;;;;;;;;;;5050614;28;20052;-78
2024/03/23 08:25:09;;;;;;;15.40;4.03;;;;;;;;;;5052110;28;20453;-77
2024/03/23 08:27:35;;;;;;;16.80;3.55;;;;;;;;;;5051007;28;20040;-77
2024/03/23 08:30:02;;;;;;;21.27;4.93;;;;;;;;;;5050807;28;20028;-77
2024/03/23 08:32:28;;;;;;;17.98;4.22;;;;;;;;;;5050969;28;20075;-77
2024/03/23 08:34:55;;;;;;;15.73;3.75;;;;;;;;;;5050757;28;20025;-77
2024/03/23 08:37:21;;;;;;;11.25;3.17;;;;;;;;;;5050800;28;20469;-78
2024/03/23 08:39:47;;;;;;;19.65;4.30;;;;;;;;;;5052051;28;20033;-77
2024/03/23 08:42:13;;;;;;;13.35;3.08;;;;;;;;;;5052292;28;20032;-78
2024/03/23 08:44:39;;;;;;;15.82;2.97;;;;;;;;;;5052421;28;20025;-78
2024/03/23 08:47:05;;;;;;;18.75;3.58;;;;;;;;;;5050635;28;20025;-77
2024/03/23 08:49:31;;;;;;;10.43;2.28;;;;;;;;;;5050815;28;20362;-77
2024/03/23 08:51:57;;;;;;;9.35;2.55;;;;;;;;;;5051347;28;20051;-76
2024/03/23 08:54:23;;;;;;;13.20;3.65;;;;;;;;;;5050710;28;20025;-78
2024/03/23 08:56:49;;;;;;;9.65;2.67;;;;;;;;;;5050569;28;20056;-78
2024/03/23 08:59:15;;;;;;;12.35;2.53;;;;;;;;;;5050624;28;20037;-77
2024/03/23 09:01:41;;;;;;;13.60;2.92;;;;;;;;;;5050709;28;20330;-78
2024/03/23 09:04:07;;;;;;;12.32;2.70;;;;;;;;;;5050384;28;20381;-78
2024/03/23 09:06:33;;;;;;;13.43;2.25;;;;;;;;;;5050699;28;20021;-78
2024/03/23 09:08:59;;;;;;;14.15;2.50;;;;;;;;;;5050322;28;20033;-77
2024/03/23 09:11:25;;;;;;;18.95;6.65;;;;;;;;;;5050469;28;20021;-78
2024/03/23 09:13:51;;;;;;;9.27;3.03;;;;;;;;;;5050230;28;20457;-78
2024/03/23 09:16:17;;;;;;;11.80;4.05;;;;;;;;;;5050508;28;20417;-77
2024/03/23 09:18:45;;;;;;;16.23;4.28;;;;;;;;;;5051640;28;20036;-77
2024/03/23 09:21:13;;;;;;;16.35;4.65;;;;;;;;;;5049980;28;20049;-77
2024/03/23 09:23:39;;;;;;;17.30;4.68;;;;;;;;;;5050501;28;20017;-78
2024/03/23 09:26:07;;;;;;;19.50;4.00;;;;;;;;;;5051297;28;20025;-78
2024/03/23 09:28:33;;;;;;;13.43;4.07;;;;;;;;;;5051841;28;20028;-77
2024/03/23 09:31:14;;;;;;;22.25;5.18;;;;;;;;;;5051467;28;20025;-78
2024/03/23 09:33:40;;;;;;;16.85;5.30;;;;;;;;;;5050372;28;20108;-78
2024/03/23 09:36:07;;;;;;;11.75;2.92;;;;;;;;;;5049895;28;20079;-77
2024/03/23 09:38:33;;;;;;;11.77;2.75;;;;;;;;;;5051256;28;20041;-77
2024/03/23 09:40:59;;;;;;;12.80;2.38;;;;;;;;;;5049871;28;20021;-77
2024/03/23 09:43:25;;;;;;;11.70;2.58;;;;;;;;;;5050071;28;20032;-77
2024/03/23 09:45:52;;;;;;;13.88;2.35;;;;;;;;;;5049722;28;20029;-77
2024/03/23 09:48:18;;;;;;;10.48;2.42;;;;;;;;;;5050110;28;20035;-77
2024/03/23 09:50:45;;;;;;;11.48;2.10;;;;;;;;;;5050188;28;20162;-78
2024/03/23 09:53:12;;;;;;;13.25;2.25;;;;;;;;;;5051277;28;20021;-77
2024/03/23 09:55:38;;;;;;;10.30;1.85;;;;;;;;;;5050158;28;20116;-77
2024/03/23 09:58:05;;;;;;;8.10;1.92;;;;;;;;;;5049856;28;20473;-77
2024/03/23 10:00:34;;;;;;;10.20;1.98;;;;;;;;;;5049832;28;20423;-78
2024/03/23 10:03:04;;;;;;;6.75;1.75;;;;;;;;;;5051482;28;20384;-76
2024/03/23 10:05:36;;;;;;;9.13;2.40;;;;;;;;;;5054638;28;20477;-77
2024/03/23 10:08:11;;;;;;;13.98;2.40;;;;;;;;;;5053061;28;20271;-77
2024/03/23 10:10:37;;;;;;;9.50;2.38;;;;;;;;;;5053329;28;20025;-78
2024/03/23 10:13:03;;;;;;;15.95;2.55;;;;;;;;;;5054433;28;20351;-78
2024/03/23 10:15:29;;;;;;;13.30;2.00;;;;;;;;;;5053361;28;20025;-77
2024/03/23 10:17:55;;;;;;;11.68;1.77;;;;;;;;;;5054121;28;20033;-78
2024/03/23 10:20:23;;;;;;;9.52;1.83;;;;;;;;;;5054133;28;20053;-77
2024/03/23 10:22:51;;;;;;;12.52;1.65;;;;;;;;;;5053128;28;20223;-77
2024/03/23 10:25:17;;;;;;;11.38;2.13;;;;;;;;;;5053243;28;20033;-78
2024/03/23 10:27:43;;;;;;;11.05;1.70;;;;;;;;;;5053115;28;20059;-77
2024/03/23 10:30:10;;;;;;;9.75;2.45;;;;;;;;;;5052798;28;20024;-78
2024/03/23 10:32:36;;;;;;;11.85;1.90;;;;;;;;;;5054464;28;20499;-78
2024/03/23 10:35:15;;;;;;;8.73;1.50;;;;;;;;;;5052791;28;20112;-78
2024/03/23 10:37:42;;;;;;;9.95;2.33;;;;;;;;;;5052986;28;20036;-79
2024/03/23 10:40:10;;;;;;;10.07;2.30;;;;;;;;;;5052788;28;20429;-78
2024/03/23 10:42:37;;;;;;;11.88;2.33;;;;;;;;;;5052966;28;20110;-78
2024/03/23 10:45:04;;;;;;;6.00;1.52;;;;;;;;;;5052600;28;20020;-78
2024/03/23 10:47:30;;;;;;;7.68;2.08;;;;;;;;;;5052829;28;20036;-78
2024/03/23 10:49:56;;;;;;;12.60;2.00;;;;;;;;;;5052608;28;20025;-78
2024/03/23 10:52:22;;;;;;;11.43;1.98;;;;;;;;;;5054404;28;20373;-77
2024/03/23 10:54:51;;;;;;;8.18;2.33;;;;;;;;;;5054056;28;20025;-77
2024/03/23 10:57:26;;;;;;;16.75;2.58;;;;;;;;;;5052645;28;20110;-78
2024/03/23 10:59:53;;;;;;;14.32;2.00;;;;;;;;;;5053645;28;20380;-77
2024/03/23 11:02:19;;;;;;;13.25;2.97;;;;;;;;;;5052709;28;20025;-77
2024/03/23 11:04:49;;;;;;;14.35;2.88;;;;;;;;;;5052579;28;20250;-79
2024/03/23 11:07:24;;;;;;;12.93;2.60;;;;;;;;;;5052630;28;20425;-79
2024/03/23 11:09:52;;;;;;;13.82;3.35;;;;;;;;;;5052122;28;20057;-79
2024/03/23 11:12:24;;;;;;;11.65;2.33;;;;;;;;;;5053790;28;20025;-78
2024/03/23 11:14:50;;;;;;;7.85;1.98;;;;;;;;;;5052694;28;20021;-78
2024/03/23 11:17:19;;;;;;;10.85;2.42;;;;;;;;;;5052163;28;20079;-77
2024/03/23 11:19:54;;;;;;;15.50;2.35;;;;;;;;;;5051808;28;20049;-78
2024/03/23 11:22:42;;;;;;;12.73;2.65;;;;;;;;;;5052255;28;20032;-77
2024/03/23 11:25:14;;;;;;;9.82;2.95;;;;;;;;;;5053200;28;20048;-78
2024/03/23 11:27:40;;;;;;;17.67;4.90;;;;;;;;;;5053438;28;20475;-79
2024/03/23 11:30:17;;;;;;;11.82;2.80;;;;;;;;;;5051861;28;20017;-79
2024/03/23 11:32:46;;;;;;;11.20;1.95;;;;;;;;;;5053313;28;20491;-79
2024/03/23 11:35:27;;;;;;;8.57;2.10;;;;;;;;;;5053041;28;20025;-79
2024/03/23 11:38:03;;;;;;;11.27;3.25;;;;;;;;;;5051550;28;20029;-80
2024/03/23 11:40:30;;;;;;;11.00;2.75;;;;;;;;;;5053103;28;20025;-84
2024/03/23 11:42:57;;;;;;;11.63;2.78;;;;;;;;;;5051589;28;20021;-81
2024/03/23 11:45:23;;;;;;;13.73;3.20;;;;;;;;;;5052365;28;20075;-79
2024/03/23 11:47:49;;;;;;;12.98;2.35;;;;;;;;;;5051791;28;20032;-81
2024/03/23 11:50:21;;;;;;;16.15;3.22;;;;;;;;;;5051722;28;20064;-80
2024/03/23 11:52:47;;;;;;;13.05;2.03;;;;;;;;;;5051686;28;20037;-81
2024/03/23 11:55:13;;;;;;;17.40;4.15;;;;;;;;;;5051647;28;20473;-81
2024/03/23 11:57:39;;;;;;;14.25;2.38;;;;;;;;;;5051538;28;20035;-79
2024/03/23 12:00:20;;;;;;;14.40;2.38;;;;;;;;;;5052159;28;20036;-81
2024/03/23 12:02:46;;;;;;;11.90;2.90;;;;;;;;;;5051879;28;20123;-80
2024/03/23 12:05:16;;;;;;;9.73;2.33;;;;;;;;;;5051898;28;20381;-80
2024/03/23 12:07:42;;;;;;;10.70;1.73;;;;;;;;;;5051825;28;20021;-80
2024/03/23 12:10:08;;;;;;;10.50;2.20;;;;;;;;;;5051123;28;20037;-79
2024/03/23 12:12:35;;;;;;;7.63;1.70;;;;;;;;;;5051396;28;20024;-80
2024/03/23 12:15:08;;;;;;;10.70;1.88;;;;;;;;;;5052216;28;20017;-80
2024/03/23 12:17:35;;;;;;;9.50;2.05;;;;;;;;;;5051355;28;20191;-80
2024/03/23 12:20:01;;;;;;;10.98;1.95;;;;;;;;;;5050956;28;20053;-80
2024/03/23 12:22:29;;;;;;;11.27;2.10;;;;;;;;;;5052861;28;20106;-80
2024/03/23 12:24:55;;;;;;;7.68;1.95;;;;;;;;;;5050907;28;20106;-79
2024/03/23 12:27:21;;;;;;;11.18;2.20;;;;;;;;;;5051484;28;20044;-80
2024/03/23 12:29:47;;;;;;;12.02;2.33;;;;;;;;;;5051284;28;20116;-80
2024/03/23 12:32:14;;;;;;;9.95;2.33;;;;;;;;;;5050966;28;20025;-81
2024/03/23 12:34:44;;;;;;;15.88;2.30;;;;;;;;;;5051138;28;20079;-81
2024/03/23 12:37:10;;;;;;;11.93;1.97;;;;;;;;;;5050346;28;20088;-80
2024/03/23 12:39:36;;;;;;;10.65;2.22;;;;;;;;;;5050928;28;20029;-79
2024/03/23 12:42:03;;;;;;;8.88;2.33;;;;;;;;;;5050592;28;20031;-79
2024/03/23 12:44:29;;;;;;;14.57;2.65;;;;;;;;;;5051613;28;20039;-80
2024/03/23 12:46:55;;;;;;;9.25;2.13;;;;;;;;;;5050423;28;20051;-81
2024/03/23 12:49:21;;;;;;;14.15;2.22;;;;;;;;;;5050419;28;20025;-80
2024/03/23 12:51:54;;;;;;;11.63;1.90;;;;;;;;;;5050381;28;20040;-80
2024/03/23 12:54:20;;;;;;;8.20;2.25;;;;;;;;;;5050375;28;20464;-80
2024/03/23 12:56:46;;;;;;;8.82;1.88;;;;;;;;;;5050302;28;20029;-79
2024/03/23 12:59:12;;;;;;;10.15;2.05;;;;;;;;;;5050005;28;20036;-79
2024/03/23 13:01:39;;;;;;;8.63;1.90;;;;;;;;;;5050536;28;20098;-80
2024/03/23 13:04:05;;;;;;;11.43;2.28;;;;;;;;;;5051925;28;20021;-80
2024/03/23 13:06:34;;;;;;;6.82;1.83;;;;;;;;;;5050481;28;20029;-79
2024/03/23 13:09:04;;;;;;;7.90;1.67;;;;;;;;;;5050071;28;20032;-79
2024/03/23 13:11:31;;;;;;;8.98;2.20;;;;;;;;;;5051671;28;20024;-80
2024/03/23 13:13:57;;;;;;;12.35;2.08;;;;;;;;;;5049964;28;20032;-80
2024/03/23 13:16:23;;;;;;;8.15;2.45;;;;;;;;;;5050293;28;20404;-81
2024/03/23 13:18:49;;;;;;;9.40;2.30;;;;;;;;;;5050220;28;20075;-80
2024/03/23 13:21:16;;;;;;;5.70;1.52;;;;;;;;;;5051248;28;20443;-79
2024/03/23 13:23:43;;;;;;;8.23;1.95;;;;;;;;;;5051532;28;20055;-80
2024/03/23 13:26:09;;;;;;;6.10;1.50;;;;;;;;;;5051250;28;20388;-79
2024/03/23 13:28:35;;;;;;;8.35;2.00;;;;;;;;;;5050108;28;20530;-80
2024/03/23 13:31:05;;;;;;;7.55;1.25;;;;;;;;;;5051557;28;20103;-80
2024/03/23 13:33:34;;;;;;;8.02;2.17;;;;;;;;;;5050254;28;20021;-80
2024/03/23 13:36:00;;;;;;;15.73;1.92;;;;;;;;;;5050288;28;20127;-80
2024/03/23 13:38:26;;;;;;;12.30;2.50;;;;;;;;;;5052939;28;20506;-80
2024/03/23 13:40:59;;;;;;;8.82;2.20;;;;;;;;;;5053840;28;20029;-81
2024/03/23 13:43:28;;;;;;;10.90;2.20;;;;;;;;;;5053853;28;20021;-81
2024/03/23 13:45:55;;;;;;;8.80;2.65;;;;;;;;;;5055041;28;20032;-79
2024/03/23 13:48:22;;;;;;;13.70;2.92;;;;;;;;;;5054980;28;20017;-80
2024/03/23 13:50:48;;;;;;;6.53;1.70;;;;;;;;;;5053803;28;20083;-80
2024/03/23 13:53:14;;;;;;;9.75;2.53;;;;;;;;;;5053472;28;20507;-80
2024/03/23 13:55:48;;;;;;;13.27;2.13;;;;;;;;;;5053579;28;20495;-81
2024/03/23 13:58:14;;;;;;;8.40;1.75;;;;;;;;;;5053654;28;20080;-80
2024/03/23 14:00:40;;;;;;;8.20;1.75;;;;;;;;;;5053516;28;20116;-80
2024/03/23 14:03:06;;;;;;;6.88;2.00;;;;;;;;;;5054589;28;20021;-80
2024/03/23 14:05:32;;;;;;;8.38;1.95;;;;;;;;;;5053715;28;20104;-80
2024/03/23 14:07:58;;;;;;;10.70;2.17;;;;;;;;;;5053243;28;20512;-80
2024/03/23 14:10:24;;;;;;;6.80;1.13;;;;;;;;;;5053353;28;20120;-80
2024/03/23 14:12:50;;;;;;;11.48;2.53;;;;;;;;;;5053440;28;20120;-80
2024/03/23 14:15:18;;;;;;;10.00;3.15;;;;;;;;;;5053328;28;20021;-80
2024/03/23 14:17:44;;;;;;;9.40;1.75;;;;;;;;;;5053350;28;20028;-81
2024/03/23 14:20:11;;;;;;;7.88;1.30;;;;;;;;;;5052576;28;20048;-80
2024/03/23 14:22:38;;;;;;;3.17;1.15;;;;;;;;;;5053288;28;20037;-80
2024/03/23 14:25:04;;;;;;;10.85;1.58;;;;;;;;;;5052894;28;20120;-78